Portada
METAR-TAF:

METAR-TAF

Aeroports :

Aeroport d'Essaouira-Mogador

Essaouira, Marroc

latitud: 31-31N, longitud: 009-47W, altitud: 15 m

Observació

L'informe es va fer fa 38 minuts, a les 13:00 UTC
Vent 18 kt del Nord, variant entre Nord-Oest i Nord/Nord-Est
Temperatura 30°C
Humitat 46%
Pressió 1014 hPa
Visibilitat: 8000 m

METAR: GMMI 191300Z 36018KT 320V020 8000 NSC 30/17 Q1014 NOSIG

Hora: 14:38 (13:38 UTC)

Pronòstic

L'informe es va fer fa 2 hores i 38 minuts, a les 11:00 UTC
Pronòstic vàlid del 19 a les 12 UTC al 20 a les 18 UTC
Vent 14 kt del Nord
Visibilitat: 8000 m

TAF: GMMI 191100Z 1912/2018 36014KT 8000 NSC

Observacions i pronòstics meteorològics de més de 4000 aeroports (METAR i TAF).

Les estacions disponibles són els punts grocs i vermells al mapa.

Posi el ratolí al punt desitjat per veure el nom de l'estació.

Feu clic per veure les observacions i els pronòstics meteorològics.

Per canviar el mapa: feu clic els botons verds amb una creu de color negre per apropar; al botó verd amb un guió per allunyar la imatge; o en les fletxes verdes per a mapes adjacents.


METAR-TAF: